createdAt,value
2019-03-24T00:00:11.899Z,93.90
2019-03-24T00:02:40.905Z,94.10
2019-03-24T00:05:09.815Z,94.50
2019-03-24T00:07:38.655Z,94.70
2019-03-24T00:10:09.518Z,94.80
2019-03-24T00:12:38.097Z,94.60
2019-03-24T00:15:08.237Z,94.70
2019-03-24T00:17:37.099Z,94.80
2019-03-24T00:20:10.025Z,94.60
2019-03-24T00:22:38.091Z,94.20
2019-03-24T00:25:08.023Z,94.80
2019-03-24T00:27:36.876Z,94.50
2019-03-24T00:30:10.076Z,94.50
2019-03-24T00:32:38.879Z,94.80
2019-03-24T00:35:08.139Z,95.10
2019-03-24T00:37:36.671Z,95.20
2019-03-24T00:40:09.490Z,95.20
2019-03-24T00:42:38.309Z,95.10
2019-03-24T00:45:09.337Z,95.00
2019-03-24T00:47:38.197Z,94.90
2019-03-24T00:50:07.630Z,95.10
2019-03-24T00:52:36.522Z,95.30
2019-03-24T00:55:07.253Z,95.40
2019-03-24T00:57:37.625Z,95.60
2019-03-24T01:00:11.861Z,95.10
2019-03-24T01:02:40.688Z,94.80
2019-03-24T01:05:09.785Z,94.60
2019-03-24T01:07:38.825Z,94.10
2019-03-24T01:10:09.038Z,94.00
2019-03-24T01:12:38.035Z,93.50
2019-03-24T01:15:07.921Z,94.00
2019-03-24T01:17:38.073Z,94.50
2019-03-24T01:20:08.172Z,95.00
2019-03-24T01:22:37.384Z,95.50
2019-03-24T01:25:07.136Z,95.50
2019-03-24T01:27:36.041Z,95.30
2019-03-24T01:30:08.999Z,95.60
2019-03-24T01:32:37.924Z,95.70
2019-03-24T01:35:07.278Z,95.80
2019-03-24T01:37:36.194Z,95.90
2019-03-24T01:40:07.005Z,95.80
2019-03-24T01:42:35.969Z,95.90
2019-03-24T01:45:10.626Z,95.80
2019-03-24T01:47:39.488Z,95.60
2019-03-24T01:50:08.629Z,95.70
2019-03-24T01:52:37.502Z,96.00
2019-03-24T01:55:06.659Z,96.20
2019-03-24T01:57:35.454Z,96.30
2019-03-24T02:00:08.558Z,96.30
2019-03-24T02:02:37.419Z,95.80
2019-03-24T02:05:07.080Z,95.70
2019-03-24T02:07:36.115Z,96.00
2019-03-24T02:10:09.757Z,96.30
2019-03-24T02:12:38.232Z,96.40
2019-03-24T02:15:08.433Z,96.60
2019-03-24T02:17:37.259Z,95.70
2019-03-24T02:20:07.201Z,96.10
2019-03-24T02:22:36.103Z,96.30
2019-03-24T02:25:06.345Z,96.30
2019-03-24T02:27:35.066Z,96.30
2019-03-24T02:30:04.784Z,95.90
2019-03-24T02:32:33.542Z,96.30
2019-03-24T02:35:02.293Z,96.50
2019-03-24T02:37:31.100Z,96.50
2019-03-24T02:39:59.862Z,96.70
2019-03-24T02:42:28.412Z,96.30
2019-03-24T02:44:57.331Z,96.40
2019-03-24T02:47:26.074Z,96.50
2019-03-24T02:49:54.840Z,96.40
2019-03-24T02:52:23.747Z,96.40
2019-03-24T02:54:52.579Z,96.60
2019-03-24T02:57:21.045Z,96.10
2019-03-24T02:59:49.924Z,95.70
2019-03-24T03:02:18.686Z,95.60
2019-03-24T03:04:47.518Z,95.80
2019-03-24T03:07:16.379Z,95.90
2019-03-24T03:09:45.300Z,96.30
2019-03-24T03:12:14.085Z,96.60
2019-03-24T03:14:42.949Z,96.70
2019-03-24T03:17:11.767Z,96.70
2019-03-24T03:19:40.508Z,96.80
2019-03-24T03:22:09.325Z,96.70
2019-03-24T03:24:38.143Z,96.80
2019-03-24T03:27:06.972Z,96.90
2019-03-24T03:29:35.822Z,97.00
2019-03-24T03:32:04.593Z,97.10
2019-03-24T03:34:33.430Z,97.10
2019-03-24T03:37:02.316Z,97.70
2019-03-24T03:39:31.158Z,97.60
2019-03-24T03:41:59.984Z,97.50
2019-03-24T03:44:28.861Z,97.50
2019-03-24T03:46:57.761Z,97.10
2019-03-24T03:49:26.310Z,96.80
2019-03-24T03:51:55.125Z,96.70
2019-03-24T03:54:23.982Z,96.80
2019-03-24T03:56:52.472Z,97.20
2019-03-24T03:59:21.366Z,96.90
2019-03-24T04:01:50.182Z,96.60
2019-03-24T04:04:18.715Z,96.50
2019-03-24T04:06:47.602Z,96.60
2019-03-24T04:09:16.096Z,96.80
2019-03-24T04:11:45.075Z,97.10
2019-03-24T04:14:13.998Z,97.40
2019-03-24T04:16:42.841Z,97.20
2019-03-24T04:19:11.617Z,97.10
2019-03-24T04:21:40.497Z,97.40
2019-03-24T04:24:09.373Z,97.70
2019-03-24T04:26:38.258Z,97.30
2019-03-24T04:29:07.185Z,97.30
2019-03-24T04:31:36.020Z,97.60
2019-03-24T04:34:04.945Z,97.80
2019-03-24T04:36:33.811Z,97.80
2019-03-24T04:39:02.739Z,97.60
2019-03-24T04:41:31.611Z,97.40
2019-03-24T04:44:00.472Z,97.30
2019-03-24T04:46:29.320Z,97.30
2019-03-24T04:48:59.142Z,97.40
2019-03-24T04:51:27.648Z,97.30
2019-03-24T04:53:56.442Z,97.10
2019-03-24T04:56:25.297Z,97.30
2019-03-24T04:58:53.816Z,97.50
2019-03-24T05:01:22.616Z,97.60
2019-03-24T05:03:51.375Z,97.60
2019-03-24T05:06:20.595Z,97.60
2019-03-24T05:08:50.295Z,97.40
2019-03-24T05:11:19.102Z,97.80
2019-03-24T05:13:47.654Z,98.00
2019-03-24T05:16:16.449Z,97.80
2019-03-24T05:18:45.223Z,97.80
2019-03-24T05:21:14.104Z,97.90
2019-03-24T05:23:42.910Z,97.70
2019-03-24T05:26:13.326Z,97.60
2019-03-24T05:28:41.912Z,97.60
2019-03-24T05:31:10.687Z,97.80
2019-03-24T05:33:39.533Z,97.80
2019-03-24T05:36:08.323Z,97.80
2019-03-24T05:38:45.968Z,97.70
2019-03-24T05:41:14.743Z,97.50
2019-03-24T05:43:43.527Z,97.20
2019-03-24T05:46:12.387Z,96.80
2019-03-24T05:48:42.301Z,96.80
2019-03-24T05:51:12.076Z,96.40
2019-03-24T05:53:40.925Z,95.90
2019-03-24T05:56:09.446Z,95.20
2019-03-24T05:58:38.171Z,95.10
2019-03-24T06:01:06.712Z,94.90
2019-03-24T06:03:35.474Z,94.40
2019-03-24T06:06:04.435Z,94.00
2019-03-24T06:08:33.224Z,93.70
2019-03-24T06:11:02.024Z,93.60
2019-03-24T06:13:30.835Z,93.60
2019-03-24T06:15:59.356Z,92.70
2019-03-24T06:18:28.330Z,92.10
2019-03-24T06:20:57.137Z,92.00
2019-03-24T06:23:25.904Z,91.80
2019-03-24T06:25:56.488Z,91.50
2019-03-24T06:28:25.338Z,91.00
2019-03-24T06:30:54.206Z,90.00
2019-03-24T06:33:22.957Z,89.70
2019-03-24T06:35:55.171Z,87.70
2019-03-24T06:38:26.882Z,85.00
2019-03-24T06:40:55.767Z,83.50
2019-03-24T06:43:24.690Z,83.10
2019-03-24T06:45:54.860Z,82.60
2019-03-24T06:48:27.616Z,79.80
2019-03-24T06:54:09.623Z,75.40
2019-03-24T06:59:43.362Z,71.80
2019-03-24T07:02:15.215Z,69.50
2019-03-24T07:04:44.095Z,68.30
2019-03-24T07:07:14.485Z,67.70
2019-03-24T07:10:01.883Z,66.80
2019-03-24T07:12:48.911Z,65.70
2019-03-24T07:15:32.976Z,65.10
2019-03-24T07:18:19.326Z,63.80
2019-03-24T07:20:50.139Z,62.30
2019-03-24T07:23:24.875Z,61.00
2019-03-24T07:26:43.214Z,61.00
2019-03-24T07:33:01.527Z,60.20
2019-03-24T07:35:43.301Z,59.70
2019-03-24T07:39:07.136Z,59.30
2019-03-24T07:41:42.137Z,59.30
2019-03-24T07:44:31.859Z,59.00
2019-03-24T07:47:06.350Z,58.30
2019-03-24T07:49:35.475Z,58.50
2019-03-24T07:52:26.055Z,58.80
2019-03-24T07:57:44.232Z,57.70
2019-03-24T08:00:13.518Z,58.10
2019-03-24T08:02:50.998Z,60.00
2019-03-24T08:05:16.307Z,60.30
2019-03-24T08:07:45.187Z,60.00
2019-03-24T08:10:15.383Z,61.30
2019-03-24T08:12:44.251Z,62.00
2019-03-24T08:15:13.146Z,62.80
2019-03-24T08:17:41.912Z,62.50
2019-03-24T08:20:12.316Z,62.80
2019-03-24T08:22:40.938Z,63.50
2019-03-24T08:25:09.960Z,63.30
2019-03-24T08:27:38.756Z,62.80
2019-03-24T08:30:08.164Z,63.30
2019-03-24T08:32:37.154Z,65.50
2019-03-24T08:35:08.906Z,64.20
2019-03-24T08:37:37.833Z,63.40
2019-03-24T08:40:08.027Z,63.90
2019-03-24T08:42:36.855Z,65.20
2019-03-24T08:45:06.419Z,64.60
2019-03-24T08:47:34.876Z,63.60
2019-03-24T08:50:04.052Z,64.70
2019-03-24T08:52:32.583Z,66.20
2019-03-24T08:55:01.344Z,64.50
2019-03-24T08:57:32.334Z,62.60
2019-03-24T09:00:00.546Z,63.80
2019-03-24T09:02:29.344Z,63.50
2019-03-24T09:04:58.215Z,64.40
2019-03-24T09:07:27.061Z,63.80
2019-03-24T09:09:55.823Z,63.00
2019-03-24T09:12:24.691Z,62.10
2019-03-24T09:14:53.572Z,63.60
2019-03-24T09:17:22.105Z,64.10
2019-03-24T09:19:50.963Z,62.80
2019-03-24T09:22:19.513Z,62.90
2019-03-24T09:24:48.290Z,62.10
2019-03-24T09:27:17.227Z,63.60
2019-03-24T09:29:45.991Z,62.40
2019-03-24T09:32:14.851Z,63.80
2019-03-24T09:34:43.698Z,62.30
2019-03-24T09:37:12.522Z,63.20
2019-03-24T09:39:41.312Z,63.00
2019-03-24T09:42:10.118Z,61.60
2019-03-24T09:44:38.971Z,64.10
2019-03-24T09:47:07.752Z,61.80
2019-03-24T09:49:36.597Z,63.30
2019-03-24T09:52:05.133Z,64.30
2019-03-24T09:54:33.918Z,60.90
2019-03-24T09:57:02.505Z,59.80
2019-03-24T09:59:31.816Z,60.60
2019-03-24T10:02:00.661Z,60.30
2019-03-24T10:04:29.575Z,58.20
2019-03-24T10:06:58.350Z,56.90
2019-03-24T10:09:27.216Z,57.60
2019-03-24T10:11:56.115Z,58.20
2019-03-24T10:14:24.900Z,57.50
2019-03-24T10:16:55.624Z,55.70
2019-03-24T10:19:24.205Z,55.40
2019-03-24T10:21:52.747Z,55.20
2019-03-24T10:24:21.542Z,54.40
2019-03-24T10:26:50.425Z,53.20
2019-03-24T10:29:19.214Z,53.10
2019-03-24T10:31:48.064Z,53.50
2019-03-24T10:34:16.889Z,53.80
2019-03-24T10:36:45.370Z,55.60
2019-03-24T10:39:13.842Z,54.10
2019-03-24T10:41:42.654Z,54.30
2019-03-24T10:44:11.397Z,53.80
2019-03-24T10:46:40.201Z,54.20
2019-03-24T10:49:09.073Z,52.60
2019-03-24T10:51:37.921Z,53.70
2019-03-24T10:54:06.708Z,53.60
2019-03-24T10:56:35.207Z,54.00
2019-03-24T10:59:03.764Z,53.60
2019-03-24T11:01:32.537Z,53.20
2019-03-24T11:04:01.366Z,52.40
2019-03-24T11:06:30.225Z,52.50
2019-03-24T11:08:59.026Z,52.60
2019-03-24T11:11:27.982Z,52.90
2019-03-24T11:13:56.545Z,51.90
2019-03-24T11:16:25.186Z,52.10
2019-03-24T11:18:54.188Z,52.30
2019-03-24T11:21:22.965Z,53.10
2019-03-24T11:23:51.850Z,52.30
2019-03-24T11:26:20.729Z,52.20
2019-03-24T11:28:49.216Z,52.10
2019-03-24T11:31:17.702Z,51.50
2019-03-24T11:33:49.734Z,51.40
2019-03-24T11:36:33.114Z,51.90
2019-03-24T11:39:09.951Z,52.40
2019-03-24T11:44:37.766Z,50.80
2019-03-24T11:47:06.640Z,49.80
2019-03-24T11:49:49.066Z,50.80
2019-03-24T11:52:16.318Z,50.00
2019-03-24T11:54:45.112Z,51.60
2019-03-24T11:57:13.983Z,50.00
2019-03-24T11:59:42.866Z,49.90
2019-03-24T12:02:19.354Z,51.20
2019-03-24T12:05:00.891Z,51.90
2019-03-24T12:07:33.669Z,52.50
2019-03-24T12:10:02.315Z,52.80
2019-03-24T12:12:30.754Z,53.00
2019-03-24T12:14:59.455Z,52.40
2019-03-24T12:17:27.898Z,51.60
2019-03-24T12:19:57.271Z,51.10
2019-03-24T12:22:25.807Z,52.00
2019-03-24T12:24:54.537Z,51.30
2019-03-24T12:27:23.239Z,48.60
2019-03-24T12:29:51.938Z,50.00
2019-03-24T12:32:20.670Z,48.30
2019-03-24T12:34:49.363Z,49.10
2019-03-24T12:37:18.067Z,48.30
2019-03-24T12:39:46.792Z,48.10
2019-03-24T12:42:15.493Z,48.30
2019-03-24T12:44:44.198Z,49.70
2019-03-24T12:47:12.661Z,50.60
2019-03-24T12:49:41.360Z,50.90
2019-03-24T12:52:10.051Z,50.10
2019-03-24T12:54:38.514Z,51.30
2019-03-24T12:57:07.217Z,50.40
2019-03-24T12:59:35.923Z,51.40
2019-03-24T13:02:04.639Z,50.90
2019-03-24T13:04:33.411Z,52.60
2019-03-24T13:07:02.111Z,54.00
2019-03-24T13:09:30.557Z,52.20
2019-03-24T13:11:59.250Z,52.80
2019-03-24T13:14:30.582Z,52.50
2019-03-24T13:16:58.394Z,53.20
2019-03-24T13:19:27.089Z,51.70
2019-03-24T13:21:55.539Z,51.90
2019-03-24T13:24:24.073Z,54.60
2019-03-24T13:26:52.759Z,54.60
2019-03-24T13:29:21.450Z,55.60
2019-03-24T13:31:50.177Z,54.50
2019-03-24T13:34:18.866Z,54.80
2019-03-24T13:36:47.560Z,55.90
2019-03-24T13:39:16.012Z,54.90
2019-03-24T13:41:44.707Z,55.60
2019-03-24T13:44:13.408Z,56.30
2019-03-24T13:46:42.147Z,56.80
2019-03-24T13:49:10.640Z,57.30
2019-03-24T13:51:39.075Z,58.30
2019-03-24T13:54:07.523Z,59.20
2019-03-24T13:56:36.399Z,60.30
2019-03-24T13:59:04.963Z,61.70
2019-03-24T14:01:33.753Z,63.50
2019-03-24T14:04:02.435Z,63.80
2019-03-24T14:06:31.347Z,63.80
2019-03-24T14:09:00.055Z,64.60
2019-03-24T14:11:28.490Z,63.80
2019-03-24T14:13:57.179Z,64.30
2019-03-24T14:16:25.902Z,64.30
2019-03-24T14:18:54.600Z,63.40
2019-03-24T14:21:23.304Z,64.80
2019-03-24T14:23:52.040Z,63.10
2019-03-24T14:26:20.913Z,64.00
2019-03-24T14:28:49.616Z,64.60
2019-03-24T14:31:18.332Z,64.50
2019-03-24T14:33:47.032Z,63.50
2019-03-24T14:36:15.731Z,63.60
2019-03-24T14:38:44.456Z,64.50
2019-03-24T14:41:13.150Z,64.00
2019-03-24T14:43:41.858Z,65.80
2019-03-24T14:46:10.384Z,67.70
2019-03-24T14:48:39.087Z,67.20
2019-03-24T14:51:07.532Z,66.10
2019-03-24T14:53:36.269Z,66.80
2019-03-24T14:56:05.030Z,68.70
2019-03-24T14:58:33.735Z,69.90
2019-03-24T15:01:02.464Z,67.80
2019-03-24T15:03:31.160Z,66.80
2019-03-24T15:05:59.862Z,65.10
2019-03-24T15:08:28.404Z,66.60
2019-03-24T15:14:08.480Z,67.00
2019-03-24T15:25:53.019Z,67.60
2019-03-24T15:28:21.475Z,68.50
2019-03-24T15:30:50.164Z,69.10
2019-03-24T15:33:18.859Z,69.60
2019-03-24T15:35:47.606Z,70.90
2019-03-24T15:55:30.398Z,70.00
2019-03-24T15:58:13.982Z,70.10
2019-03-24T16:00:44.412Z,70.60
2019-03-24T16:03:13.356Z,70.10
2019-03-24T16:05:42.229Z,71.80
2019-03-24T16:08:13.436Z,71.70
2019-03-24T16:10:42.186Z,71.80
2019-03-24T16:19:00.664Z,74.70
2019-03-24T16:26:57.531Z,75.80
2019-03-24T16:29:30.754Z,76.50
2019-03-24T16:32:34.024Z,76.70
2019-03-24T17:30:40.784Z,83.10
2019-03-24T21:34:29.225Z,96.20
2019-03-24T21:37:41.501Z,96.10
2019-03-24T22:05:39.193Z,96.00
2019-03-24T22:08:23.655Z,95.90
2019-03-24T22:14:01.380Z,95.60
2019-03-24T22:22:41.451Z,95.50
2019-03-24T22:25:21.933Z,95.40
2019-03-24T22:28:33.849Z,95.00
2019-03-24T22:31:12.715Z,94.90
2019-03-24T22:33:27.313Z,94.90
2019-03-24T22:42:25.161Z,94.60
2019-03-24T22:44:53.862Z,94.80
2019-03-24T22:47:17.622Z,94.30
2019-03-24T22:49:53.747Z,94.20
2019-03-24T22:52:27.059Z,94.10
2019-03-24T22:55:01.254Z,93.90
2019-03-24T22:57:32.784Z,93.70
2019-03-24T23:00:01.911Z,93.50
2019-03-24T23:02:30.728Z,93.40
2019-03-24T23:04:59.764Z,93.30
2019-03-24T23:07:33.009Z,93.20
2019-03-24T23:10:03.753Z,93.20
2019-03-24T23:12:42.047Z,93.10
2019-03-24T23:15:11.404Z,93.00
2019-03-24T23:17:44.120Z,92.80
2019-03-24T23:20:20.066Z,92.40
2019-03-24T23:22:58.301Z,92.30
2019-03-24T23:25:31.657Z,92.50
2019-03-24T23:28:01.949Z,92.30
2019-03-24T23:30:32.925Z,92.20
2019-03-24T23:33:03.338Z,92.30
2019-03-24T23:35:47.053Z,92.30
2019-03-24T23:38:27.730Z,92.30
2019-03-24T23:40:58.496Z,92.20
2019-03-24T23:43:28.019Z,92.20
2019-03-24T23:45:56.921Z,92.20
2019-03-24T23:48:25.918Z,92.00
2019-03-24T23:50:55.088Z,92.10
2019-03-24T23:53:24.091Z,91.90
2019-03-24T23:55:53.139Z,91.80
2019-03-24T23:58:22.790Z,91.90
